Time;durP1;ratioP1;P1;durP2;ratioP2;P2;SDS_P1;SDS_P2;PMS_P1;PMS_P2;Temp;Humidity;BMP_temperature;BMP_pressure;BME280_temperature;BME280_humidity;BME280_pressure;Samples;Min_cycle;Max_cycle;Signal;HPM_P1;HPM_P2
2021/12/25 00:02:06;;;;;;;2.28;1.90;;;15.50;49.30;14.60;100341.00;;;;5016388;28;20079;-69
2021/12/25 00:04:52;;;;;;;2.33;2.13;;;15.50;49.10;14.60;100335.00;;;;5042470;28;20033;-68
2021/12/25 00:07:38;;;;;;;2.50;2.10;;;15.50;49.20;14.60;100340.00;;;;5045868;28;20053;-68
2021/12/25 00:10:24;;;;;;;2.78;2.38;;;15.50;49.10;14.60;100347.00;;;;5048116;28;20080;-68
2021/12/25 00:13:11;;;;;;;4.03;2.13;;;15.50;49.00;14.60;100349.00;;;;5023948;28;20048;-68
2021/12/25 00:15:57;;;;;;;2.42;1.90;;;15.50;49.00;14.60;100354.00;;;;5045202;28;20037;-68
2021/12/25 00:18:43;;;;;;;3.25;2.10;;;15.50;48.90;14.60;100354.00;;;;5028429;28;20052;-68
2021/12/25 00:21:29;;;;;;;1.98;1.60;;;15.50;48.90;14.60;100359.00;;;;5025274;28;20045;-69
2021/12/25 00:24:15;;;;;;;2.50;2.10;;;15.50;49.00;14.60;100361.00;;;;5045074;28;20450;-68
2021/12/25 00:27:20;;;;;;;2.05;1.85;;;15.50;48.90;14.60;100360.00;;;;5043740;28;20037;-68
2021/12/25 00:33:03;;;;;;;2.78;1.58;;;15.50;48.90;14.60;100354.00;;;;5027418;28;20195;-68
2021/12/25 00:35:49;;;;;;;2.80;1.70;;;15.40;48.70;14.60;100366.00;;;;5030507;28;20037;-68
2021/12/25 00:38:37;;;;;;;1.70;1.40;;;15.50;48.80;14.60;100353.00;;;;5044091;28;20045;-69
2021/12/25 00:41:24;;;;;;;2.28;1.33;;;15.60;48.80;14.60;100357.00;;;;5030858;28;22148;-69
2021/12/25 00:44:10;;;;;;;3.13;1.52;;;15.40;48.60;14.60;100355.00;;;;5023607;28;20044;-68
2021/12/25 00:46:57;;;;;;;1.73;1.40;;;15.50;48.50;14.60;100367.00;;;;5044261;28;20123;-69
2021/12/25 00:49:44;;;;;;;1.70;1.38;;;15.40;48.40;14.60;100360.00;;;;5045038;28;22396;-69
2021/12/25 00:52:30;;;;;;;1.60;1.17;;;15.40;48.50;14.60;100360.00;;;;5016792;28;20072;-68
2021/12/25 00:55:16;;;;;;;1.75;1.35;;;15.40;48.40;14.60;100368.00;;;;5047172;28;20044;-69
2021/12/25 00:58:02;;;;;;;1.88;1.30;;;15.40;48.40;14.50;100370.00;;;;5048655;28;20057;-68
2021/12/25 01:00:49;;;;;;;2.72;1.40;;;15.40;48.30;14.60;100383.00;;;;5048107;28;20401;-69
2021/12/25 01:03:35;;;;;;;3.30;1.42;;;15.40;48.30;14.50;100379.00;;;;5028291;28;20059;-69
2021/12/25 01:06:21;;;;;;;2.30;1.23;;;15.40;48.30;14.50;100378.00;;;;5032645;28;20399;-69
2021/12/25 01:09:08;;;;;;;2.95;1.42;;;15.40;48.30;14.50;100377.00;;;;5046609;28;20040;-69
2021/12/25 01:11:55;;;;;;;1.75;1.15;;;15.40;48.40;14.50;100379.00;;;;5050788;28;20032;-69
2021/12/25 01:14:48;;;;;;;3.33;1.20;;;15.40;48.50;14.50;100382.00;;;;5048663;28;20114;-68
2021/12/25 01:26:58;;;;;;;1.70;1.20;;;15.40;48.30;14.50;100396.00;;;;5048353;28;20037;-68
2021/12/25 01:50:33;;;;;;;2.13;0.80;;;15.40;48.00;14.50;100393.00;;;;5045321;28;20041;-69
2021/12/25 01:53:19;;;;;;;2.80;0.70;;;15.30;48.00;14.50;100399.00;;;;5048715;28;20049;-68
2021/12/25 01:56:06;;;;;;;3.17;0.93;;;15.30;48.60;14.50;100406.00;;;;5034667;28;20542;-68
2021/12/25 01:58:52;;;;;;;2.00;1.05;;;15.30;47.80;14.50;100406.00;;;;5045900;28;20045;-68
2021/12/25 02:01:38;;;;;;;1.98;0.90;;;15.40;47.90;14.50;100411.00;;;;5031547;28;20105;-68
2021/12/25 02:04:24;;;;;;;0.85;0.60;;;15.30;47.80;14.50;100407.00;;;;5046166;28;20122;-69
2021/12/25 02:07:10;;;;;;;1.40;0.80;;;15.30;47.80;14.50;100408.00;;;;5046339;28;20087;-69
2021/12/25 02:09:57;;;;;;;1.25;0.85;;;15.30;47.70;14.50;100414.00;;;;5047953;28;20033;-68
2021/12/25 02:12:43;;;;;;;1.25;0.75;;;15.30;47.70;14.50;100413.00;;;;5035444;28;20029;-68
2021/12/25 02:15:30;;;;;;;1.05;0.55;;;15.30;47.80;14.50;100418.00;;;;5031229;28;20041;-68
2021/12/25 02:18:25;;;;;;;1.40;0.75;;;15.30;47.70;14.50;100418.00;;;;5049900;28;20132;-68
2021/12/25 02:21:18;;;;;;;1.33;0.60;;;15.30;47.50;14.50;100423.00;;;;5029719;28;20033;-69
2021/12/25 02:24:07;;;;;;;1.40;0.50;;;15.30;47.40;14.50;100419.00;;;;5046619;28;20044;-69
2021/12/25 02:26:55;;;;;;;0.93;0.55;;;15.30;47.30;14.50;100419.00;;;;5021546;28;20546;-69
2021/12/25 02:29:41;;;;;;;1.95;0.63;;;15.30;47.40;14.50;100418.00;;;;5034936;28;20132;-69
2021/12/25 02:32:27;;;;;;;1.13;0.50;;;15.30;47.20;14.50;100414.00;;;;5035942;28;20043;-68
2021/12/25 02:35:14;;;;;;;1.20;0.63;;;15.30;47.20;14.50;100419.00;;;;5045757;28;20560;-68
2021/12/25 02:38:00;;;;;;;0.63;0.45;;;15.30;47.20;14.50;100407.00;;;;5046200;28;20028;-68
2021/12/25 02:40:46;;;;;;;1.40;0.52;;;15.30;47.10;14.50;100416.00;;;;5032603;28;20052;-68
2021/12/25 02:43:32;;;;;;;1.85;0.57;;;15.30;47.00;14.50;100414.00;;;;5026933;28;20048;-68
2021/12/25 02:46:19;;;;;;;0.50;0.40;;;15.30;47.00;14.40;100412.00;;;;5034894;28;20036;-69
2021/12/25 02:49:12;;;;;;;0.70;0.50;;;15.30;47.00;14.40;100407.00;;;;5046234;28;20112;-69
2021/12/25 02:51:58;;;;;;;1.70;0.40;;;15.30;47.00;14.40;100423.00;;;;5045908;28;20048;-68
2021/12/25 02:54:44;;;;;;;0.57;0.43;;;15.30;47.00;14.40;100427.00;;;;5046665;28;20069;-68
2021/12/25 02:57:31;;;;;;;1.00;0.63;;;15.30;47.10;14.40;100416.00;;;;5044488;28;20075;-68
2021/12/25 03:00:27;;;;;;;2.00;0.30;;;15.30;47.10;14.40;100425.00;;;;5031248;28;20063;-69
2021/12/25 03:03:13;;;;;;;0.55;0.40;;;15.30;46.90;14.40;100423.00;;;;5018860;28;20407;-68
2021/12/25 03:06:05;;;;;;;1.08;0.40;;;15.30;46.70;14.40;100426.00;;;;5031189;28;20033;-68
2021/12/25 03:08:51;;;;;;;0.35;0.25;;;15.30;46.70;14.40;100418.00;;;;5021759;28;20049;-68
2021/12/25 03:11:41;;;;;;;0.95;0.40;;;15.30;46.50;14.40;100422.00;;;;5045720;28;20370;-68
2021/12/25 03:14:36;;;;;;;0.70;0.50;;;15.30;46.60;14.40;100414.00;;;;5043885;28;20109;-68
2021/12/25 03:17:24;;;;;;;1.08;0.40;;;15.30;46.70;14.40;100421.00;;;;5021488;28;20565;-68
2021/12/25 03:20:11;;;;;;;1.95;0.30;;;15.30;46.60;14.40;100419.00;;;;5046185;28;20048;-68
2021/12/25 03:22:57;;;;;;;1.85;0.60;;;15.30;46.60;14.40;100424.00;;;;5034649;28;20453;-68
2021/12/25 03:25:44;;;;;;;1.25;0.50;;;15.30;46.50;14.40;100428.00;;;;5047471;28;20045;-69
2021/12/25 03:28:32;;;;;;;1.30;0.50;;;15.20;46.20;14.40;100438.00;;;;5017420;28;20048;-68
2021/12/25 03:31:20;;;;;;;;;;;15.20;46.30;14.40;100443.00;;;;5035556;28;20025;-69
2021/12/25 03:34:07;;;;;;;0.90;0.38;;;15.30;46.80;14.30;100438.00;;;;5032897;28;19919;-68
2021/12/25 03:36:53;;;;;;;1.23;0.45;;;15.30;46.40;14.30;100433.00;;;;5045318;28;20045;-68
2021/12/25 03:39:39;;;;;;;0.70;0.40;;;15.30;46.30;14.30;100433.00;;;;5045630;28;20043;-68
2021/12/25 03:42:25;;;;;;;0.63;0.40;;;15.30;46.30;14.30;100433.00;;;;5031266;28;20123;-68
2021/12/25 03:45:11;;;;;;;0.90;0.43;;;15.20;46.10;14.30;100427.00;;;;5045092;28;20152;-68
2021/12/25 03:48:43;;;;;;;3.30;0.55;;;15.20;46.20;14.30;100440.00;;;;5031385;28;20040;-68
2021/12/25 04:00:43;;;;;;;0.60;0.35;;;15.20;45.90;14.30;100456.00;;;;4989282;28;20128;-68
2021/12/25 04:03:59;;;;;;;0.82;0.43;;;15.20;45.90;14.30;100466.00;;;;4962557;28;20050;-68
2021/12/25 04:07:00;;;;;;;1.27;0.40;;;15.20;45.80;14.30;100452.00;;;;5045713;28;20039;-68
2021/12/25 04:09:47;;;;;;;0.73;0.32;;;15.20;46.00;14.30;100467.00;;;;5031058;28;20470;-68
2021/12/25 04:12:33;;;;;;;0.40;0.30;;;15.20;46.90;14.30;100459.00;;;;5045287;28;20367;-68
2021/12/25 04:15:20;;;;;;;0.65;0.40;;;15.10;46.10;14.30;100463.00;;;;5044406;28;20136;-68
2021/12/25 04:18:06;;;;;;;1.35;0.80;;;15.10;46.10;14.30;100457.00;;;;5044493;28;20048;-68
2021/12/25 04:20:52;;;;;;;1.95;0.50;;;15.10;46.20;14.30;100460.00;;;;5018519;28;20041;-68
2021/12/25 04:23:41;;;;;;;0.77;0.55;;;15.10;46.10;14.30;100459.00;;;;5044317;28;20043;-69
2021/12/25 04:26:27;;;;;;;0.60;0.50;;;15.10;46.10;14.30;100473.00;;;;5047503;28;20041;-68
2021/12/25 04:29:36;;;;;;;1.17;0.73;;;15.10;46.10;14.30;100468.00;;;;5048715;28;20033;-69
2021/12/25 04:48:45;;;;;;;0.90;0.38;;;15.10;45.90;14.20;100471.00;;;;5037623;28;20364;-68
2021/12/25 05:03:10;;;;;;;0.38;0.30;;;15.00;45.80;14.20;100476.00;;;;5047816;28;20140;-68
2021/12/25 05:05:56;;;;;;;0.98;0.68;;;15.00;45.90;14.20;100472.00;;;;5048118;28;20522;-68
2021/12/25 05:08:43;;;;;;;0.45;0.30;;;15.00;45.90;14.20;100475.00;;;;5048976;28;20033;-68
2021/12/25 05:11:29;;;;;;;0.85;0.40;;;15.00;45.80;14.20;100465.00;;;;5049947;28;20106;-68
2021/12/25 05:14:15;;;;;;;0.75;0.40;;;15.00;45.90;14.20;100473.00;;;;5047010;28;20123;-68
2021/12/25 05:17:02;;;;;;;0.38;0.38;;;15.00;45.90;14.20;100475.00;;;;5033661;28;20036;-68
2021/12/25 05:19:49;;;;;;;1.50;0.55;;;15.00;45.80;14.10;100467.00;;;;5047592;28;20036;-68
2021/12/25 05:22:35;;;;;;;0.63;0.40;;;15.00;45.70;14.10;100467.00;;;;5046489;28;20052;-68
2021/12/25 05:25:21;;;;;;;0.75;0.40;;;15.00;45.70;14.10;100477.00;;;;5025713;28;20041;-68
2021/12/25 05:28:07;;;;;;;0.38;0.30;;;15.00;45.60;14.20;100470.00;;;;5046902;28;20044;-68
2021/12/25 05:30:54;;;;;;;0.93;0.50;;;15.00;45.60;14.20;100483.00;;;;5049793;28;20029;-69
2021/12/25 05:33:41;;;;;;;0.50;0.50;;;15.00;45.60;14.20;100491.00;;;;5050541;28;20063;-68
2021/12/25 05:36:28;;;;;;;2.90;0.47;;;15.00;45.50;14.10;100489.00;;;;5031013;28;20142;-68
2021/12/25 05:39:15;;;;;;;0.47;0.30;;;15.10;45.50;14.20;100498.00;;;;5028506;28;20044;-68
2021/12/25 05:42:01;;;;;;;0.40;0.35;;;15.00;45.40;14.20;100500.00;;;;5048234;28;20064;-68
2021/12/25 05:44:47;;;;;;;1.25;0.40;;;15.00;45.40;14.20;100504.00;;;;5047484;28;20577;-68
2021/12/25 05:47:33;;;;;;;0.20;0.20;;;15.00;46.00;14.20;100499.00;;;;5047679;28;20036;-68
2021/12/25 05:50:20;;;;;;;0.57;0.40;;;15.00;45.40;14.10;100506.00;;;;5031461;28;20123;-68
2021/12/25 05:53:06;;;;;;;0.60;0.40;;;15.00;45.20;14.10;100499.00;;;;5047295;28;20064;-68
2021/12/25 05:55:52;;;;;;;0.65;0.30;;;15.00;45.30;14.20;100505.00;;;;5047786;28;20045;-68
2021/12/25 05:58:38;;;;;;;1.63;0.60;;;15.00;45.10;14.20;100515.00;;;;5046820;28;20121;-68
2021/12/25 06:01:25;;;;;;;0.85;0.43;;;15.00;45.10;14.10;100511.00;;;;5047778;28;20406;-68
2021/12/25 06:04:11;;;;;;;1.63;1.38;;;15.00;45.00;14.10;100536.00;;;;5024616;28;20033;-68
2021/12/25 06:06:57;;;;;;;0.63;0.30;;;15.10;45.00;14.10;100537.00;;;;5019883;28;20052;-68
2021/12/25 06:09:44;;;;;;;1.00;0.38;;;15.00;45.00;14.10;100540.00;;;;5047089;28;20174;-68
2021/12/25 06:12:30;;;;;;;0.40;0.40;;;15.00;45.00;14.10;100554.00;;;;5045305;28;20395;-68
2021/12/25 06:15:19;;;;;;;0.93;0.35;;;15.00;44.70;14.10;100543.00;;;;5014022;28;20090;-68
2021/12/25 06:18:07;;;;;;;1.10;0.40;;;15.00;44.70;14.10;100552.00;;;;5034346;28;20079;-68
2021/12/25 06:20:53;;;;;;;2.53;0.45;;;15.00;44.70;14.10;100552.00;;;;5021573;28;20041;-68
2021/12/25 06:23:39;;;;;;;0.73;0.20;;;15.00;44.60;14.10;100557.00;;;;5046333;28;20489;-68
2021/12/25 06:26:25;;;;;;;0.45;0.30;;;15.00;44.60;14.10;100553.00;;;;5045548;28;20045;-68
2021/12/25 06:29:19;;;;;;;0.98;0.38;;;15.00;44.60;14.10;100561.00;;;;5047232;28;20032;-68
2021/12/25 06:32:06;;;;;;;0.73;0.30;;;15.00;44.40;14.10;100568.00;;;;5046872;28;20047;-68
2021/12/25 06:34:52;;;;;;;0.40;0.20;;;15.00;44.40;14.10;100573.00;;;;5031335;28;20067;-68
2021/12/25 06:37:41;;;;;;;0.70;0.30;;;15.00;44.40;14.10;100578.00;;;;5048813;28;20041;-68
2021/12/25 06:40:27;;;;;;;0.30;0.22;;;15.00;44.30;14.10;100582.00;;;;5047260;28;20045;-68
2021/12/25 06:43:13;;;;;;;1.98;0.28;;;15.00;44.30;14.10;100600.00;;;;5014276;28;20119;-68
2021/12/25 06:46:00;;;;;;;0.50;0.30;;;15.00;44.40;14.10;100590.00;;;;5044571;28;20395;-68
2021/12/25 06:48:46;;;;;;;1.50;0.30;;;15.00;44.20;14.10;100601.00;;;;5032864;28;20037;-68
2021/12/25 06:51:34;;;;;;;0.52;0.28;;;15.00;44.20;14.10;100590.00;;;;5043958;28;20041;-68
2021/12/25 06:54:21;;;;;;;1.50;0.30;;;15.00;44.10;14.10;100599.00;;;;5045280;28;20474;-68
2021/12/25 06:57:07;;;;;;;0.55;0.25;;;15.00;44.30;14.00;100592.00;;;;5040094;28;20047;-68
2021/12/25 06:59:53;;;;;;;0.43;0.20;;;15.00;44.20;14.00;100597.00;;;;5028898;28;20501;-68
2021/12/25 07:02:39;;;;;;;0.30;0.25;;;15.00;44.10;14.00;100600.00;;;;5042711;28;20041;-68
2021/12/25 07:05:25;;;;;;;1.02;0.30;;;14.90;44.10;14.00;100608.00;;;;5044431;28;20252;-68
2021/12/25 07:08:11;;;;;;;0.90;0.20;;;15.00;44.10;14.00;100612.00;;;;5045530;28;20041;-68
2021/12/25 07:10:57;;;;;;;0.28;0.20;;;14.90;44.10;14.00;100615.00;;;;5036745;28;20033;-68
2021/12/25 07:13:45;;;;;;;1.15;0.30;;;14.90;44.10;14.00;100621.00;;;;5044505;28;20102;-68
2021/12/25 07:16:32;;;;;;;;;;;14.90;44.10;14.00;100621.00;;;;5043009;28;20052;-68
2021/12/25 07:19:18;;;;;;;0.22;0.20;;;14.90;44.60;14.00;100631.00;;;;5027493;28;19912;-68
2021/12/25 07:22:04;;;;;;;1.20;0.35;;;14.90;44.10;13.90;100623.00;;;;5043055;28;20037;-68
2021/12/25 07:24:50;;;;;;;0.73;0.20;;;14.90;44.10;13.90;100624.00;;;;5044522;28;20041;-68
2021/12/25 07:27:36;;;;;;;1.00;0.20;;;14.90;44.10;13.90;100625.00;;;;5043182;28;20041;-68
2021/12/25 07:30:23;;;;;;;1.15;0.30;;;14.80;44.00;13.90;100630.00;;;;5029014;28;20043;-68
2021/12/25 07:33:09;;;;;;;0.47;0.20;;;14.90;44.10;13.90;100634.00;;;;5032848;28;20268;-68
2021/12/25 07:35:55;;;;;;;0.73;0.40;;;14.90;44.00;13.90;100640.00;;;;5044671;28;20359;-68
2021/12/25 07:38:42;;;;;;;0.20;0.20;;;14.80;44.00;13.90;100643.00;;;;5017668;28;20065;-68
2021/12/25 07:41:28;;;;;;;0.60;0.30;;;14.90;43.90;13.90;100645.00;;;;5033676;28;20671;-68
2021/12/25 07:44:14;;;;;;;1.00;0.40;;;14.80;44.00;13.90;100651.00;;;;5028783;28;20383;-68
2021/12/25 07:47:00;;;;;;;0.65;0.43;;;14.90;43.70;13.90;100649.00;;;;5015071;28;20036;-68
2021/12/25 07:49:47;;;;;;;0.63;0.30;;;14.80;43.80;13.90;100651.00;;;;5044343;28;20045;-67
2021/12/25 07:52:33;;;;;;;1.92;0.40;;;14.90;43.60;13.90;100647.00;;;;5031771;28;20355;-68
2021/12/25 07:55:19;;;;;;;1.48;0.32;;;14.80;43.70;13.90;100648.00;;;;5038269;28;20103;-68
2021/12/25 07:58:06;;;;;;;1.25;0.52;;;14.80;43.60;13.90;100650.00;;;;5027044;28;20418;-68
2021/12/25 08:00:53;;;;;;;0.20;0.20;;;14.80;43.50;13.90;100655.00;;;;5019684;28;20040;-68
2021/12/25 08:03:39;;;;;;;0.30;0.20;;;14.80;43.50;13.90;100646.00;;;;5045855;28;20045;-68
2021/12/25 08:06:25;;;;;;;2.13;0.50;;;14.80;43.50;13.90;100650.00;;;;5044194;28;20041;-68
2021/12/25 08:09:12;;;;;;;0.52;0.30;;;14.80;43.50;13.90;100645.00;;;;5039947;28;20033;-67
2021/12/25 08:12:00;;;;;;;1.00;0.50;;;14.80;43.40;13.90;100648.00;;;;5030917;28;20052;-68
2021/12/25 08:14:46;;;;;;;;;;;14.80;43.40;13.90;100651.00;;;;5001265;28;20037;-68
2021/12/25 08:17:32;;;;;;;0.73;0.30;;;14.80;44.00;13.80;100651.00;;;;5035090;28;19924;-68
2021/12/25 08:20:18;;;;;;;0.30;0.20;;;14.80;43.40;13.80;100656.00;;;;5041310;28;20040;-68
2021/12/25 08:23:05;;;;;;;1.60;0.40;;;14.80;43.30;13.80;100655.00;;;;5029753;28;20040;-68
2021/12/25 08:25:51;;;;;;;0.43;0.20;;;14.80;43.20;13.80;100656.00;;;;5041658;28;20052;-67
2021/12/25 08:28:37;;;;;;;0.55;0.30;;;14.70;43.70;13.80;100675.00;;;;5025909;28;20043;-68
2021/12/25 08:31:23;;;;;;;0.50;0.30;;;14.70;43.10;13.80;100669.00;;;;5039983;28;20191;-68
2021/12/25 08:34:10;;;;;;;1.40;0.43;;;14.70;43.00;13.80;100682.00;;;;5025230;28;20041;-68
2021/12/25 08:36:56;;;;;;;1.00;0.47;;;14.70;43.00;13.80;100684.00;;;;5021881;28;20077;-68
2021/12/25 08:39:42;;;;;;;0.98;0.50;;;14.70;42.80;13.80;100688.00;;;;5042584;28;20040;-68
2021/12/25 08:42:28;;;;;;;0.65;0.30;;;14.70;42.70;13.80;100695.00;;;;5016142;28;20045;-68
2021/12/25 08:45:41;;;;;;;0.93;0.40;;;14.70;42.80;13.80;100699.00;;;;5040969;28;20489;-68
2021/12/25 08:48:27;;;;;;;3.60;0.82;;;14.70;42.80;13.80;100697.00;;;;5024897;28;20454;-68
2021/12/25 08:51:13;;;;;;;2.50;0.40;;;14.70;43.50;13.80;100697.00;;;;5043099;28;20041;-68
2021/12/25 08:53:59;;;;;;;0.40;0.40;;;14.70;42.80;13.80;100696.00;;;;5043430;28;20040;-68
2021/12/25 08:56:46;;;;;;;2.58;0.40;;;14.70;42.70;13.80;100700.00;;;;5028064;28;20052;-68
2021/12/25 08:59:33;;;;;;;1.02;0.30;;;14.70;42.60;13.80;100704.00;;;;5027421;28;20048;-68
2021/12/25 09:02:28;;;;;;;2.22;0.28;;;14.70;42.50;13.80;100703.00;;;;5025814;28;20052;-68
2021/12/25 09:05:14;;;;;;;0.20;0.20;;;14.70;42.50;13.80;100707.00;;;;5042295;28;20094;-68
2021/12/25 09:08:01;;;;;;;0.52;0.28;;;14.70;42.60;13.80;100704.00;;;;5041231;28;20040;-68
2021/12/25 09:10:47;;;;;;;0.22;0.20;;;14.70;42.60;13.80;100709.00;;;;5031587;28;20457;-68
2021/12/25 09:13:33;;;;;;;0.38;0.30;;;14.70;42.60;13.80;100711.00;;;;5048157;28;20193;-68
2021/12/25 09:16:19;;;;;;;0.70;0.32;;;14.70;42.50;13.80;100715.00;;;;5032856;28;20053;-68
2021/12/25 09:19:05;;;;;;;1.17;0.57;;;14.70;42.50;13.80;100722.00;;;;5033317;28;20044;-68
2021/12/25 09:21:52;;;;;;;0.90;0.43;;;14.70;42.60;13.80;100719.00;;;;5034578;28;20044;-68
2021/12/25 09:24:38;;;;;;;0.63;0.22;;;14.70;42.50;13.80;100721.00;;;;5047371;28;20056;-68
2021/12/25 09:27:24;;;;;;;0.30;0.15;;;14.70;42.40;13.80;100718.00;;;;5035758;28;20049;-68
2021/12/25 09:30:12;;;;;;;0.40;0.30;;;14.70;42.40;13.70;100729.00;;;;5042723;28;20103;-68
2021/12/25 09:33:00;;;;;;;1.48;0.28;;;14.70;42.40;13.70;100729.00;;;;5033058;28;20135;-68
2021/12/25 09:35:46;;;;;;;;;;;14.70;42.50;13.70;100729.00;;;;5043793;28;20040;-68
2021/12/25 09:38:33;;;;;;;2.10;0.20;;;14.70;43.00;13.70;100733.00;;;;5022125;28;20271;-68
2021/12/25 09:41:19;;;;;;;0.65;0.20;;;14.70;42.40;13.70;100739.00;;;;5026385;28;20103;-68
2021/12/25 09:44:06;;;;;;;0.70;0.40;;;14.70;42.30;13.70;100746.00;;;;5044958;28;20045;-68
2021/12/25 09:46:52;;;;;;;0.70;0.30;;;14.70;42.20;13.70;100745.00;;;;5020426;28;20235;-68
2021/12/25 09:49:38;;;;;;;1.55;0.43;;;14.70;42.20;13.70;100742.00;;;;5042711;28;20047;-67
2021/12/25 09:52:25;;;;;;;1.50;0.50;;;14.70;42.20;13.70;100749.00;;;;5031375;28;20043;-68
2021/12/25 09:55:12;;;;;;;9.90;1.38;;;14.60;41.60;13.70;100747.00;;;;5038093;28;20037;-68
2021/12/25 09:57:58;;;;;;;12.30;0.98;;;14.60;41.30;13.80;100751.00;;;;5025031;28;20123;-68
2021/12/25 10:00:46;;;;;;;5.78;0.93;;;14.70;41.10;13.80;100753.00;;;;5041436;28;20110;-68
2021/12/25 10:03:45;;;;;;;;;;;14.70;40.90;13.80;100751.00;;;;5048693;28;20442;-68
2021/12/25 10:06:37;;;;;;;8.23;1.00;;;14.70;41.90;13.80;100752.00;;;;5042436;28;19965;-68
2021/12/25 10:09:25;;;;;;;8.05;0.90;;;14.70;40.70;13.80;100754.00;;;;5045427;28;20049;-69
2021/12/25 10:12:12;;;;;;;10.20;0.95;;;14.80;40.50;13.90;100751.00;;;;5043821;28;20041;-69
2021/12/25 10:14:59;;;;;;;6.75;0.75;;;14.80;40.30;13.90;100755.00;;;;5040613;28;20127;-69
2021/12/25 10:17:53;;;;;;;2.55;0.85;;;14.80;40.20;13.90;100750.00;;;;5025642;28;20394;-69
2021/12/25 10:20:40;;;;;;;3.83;0.60;;;14.80;40.00;13.90;100760.00;;;;5030961;28;20139;-69
2021/12/25 10:23:30;;;;;;;1.50;0.45;;;14.80;40.00;13.90;100754.00;;;;5041886;28;20048;-69
2021/12/25 10:26:22;;;;;;;5.70;0.50;;;14.80;39.90;13.90;100757.00;;;;5026748;28;20033;-69
2021/12/25 10:29:34;;;;;;;0.88;0.45;;;14.90;39.60;13.90;100761.00;;;;5031312;28;20043;-69
2021/12/25 10:32:23;;;;;;;0.38;0.28;;;14.90;39.80;13.90;100762.00;;;;5029255;28;20086;-69
2021/12/25 10:35:36;;;;;;;3.55;0.40;;;14.90;39.70;13.90;100761.00;;;;5032064;28;20041;-70
2021/12/25 10:38:24;;;;;;;3.45;0.60;;;14.90;39.50;14.00;100753.00;;;;5023784;28;20045;-77
2021/12/25 10:41:18;;;;;;;1.30;0.38;;;14.90;39.50;14.00;100759.00;;;;5025061;28;20047;-69
2021/12/25 10:44:18;;;;;;;6.68;0.90;;;15.00;39.50;14.00;100763.00;;;;5045276;28;20071;-69
2021/12/25 10:47:11;;;;;;;36.90;2.42;;;15.00;39.70;14.00;100758.00;;;;5040407;28;21912;-69
2021/12/25 10:50:02;;;;;;;138.15;12.73;;;15.00;39.90;14.00;100755.00;;;;5033480;28;20043;-69
2021/12/25 10:52:48;;;;;;;151.60;16.83;;;15.00;40.10;14.00;100758.00;;;;5042405;28;20041;-69
2021/12/25 10:55:36;;;;;;;147.77;16.30;;;15.00;40.30;14.00;100747.00;;;;5039871;28;20479;-70
2021/12/25 10:58:23;;;;;;;;;;;15.00;40.30;14.00;100748.00;;;;5041719;28;20057;-69
2021/12/25 11:01:12;;;;;;;92.90;12.52;;;15.00;40.90;14.10;100744.00;;;;5041279;28;20019;-70
2021/12/25 11:03:58;;;;;;;86.72;11.00;;;15.10;40.60;14.10;100749.00;;;;5033106;28;20475;-69
2021/12/25 11:06:44;;;;;;;68.40;8.80;;;15.10;40.50;14.10;100757.00;;;;5045954;28;20043;-69
2021/12/25 11:09:31;;;;;;;77.25;10.23;;;15.00;40.90;14.10;100756.00;;;;5041706;28;20044;-69
2021/12/25 11:12:22;;;;;;;59.35;6.78;;;15.10;40.20;14.10;100752.00;;;;5040936;28;20089;-69
2021/12/25 11:15:24;;;;;;;53.25;7.38;;;15.10;40.20;14.10;100756.00;;;;5024386;28;20048;-69
2021/12/25 11:18:18;;;;;;;52.28;7.25;;;15.10;39.90;14.10;100749.00;;;;5046090;28;20083;-70
2021/12/25 11:21:11;;;;;;;34.90;5.57;;;15.10;40.20;14.10;100744.00;;;;5046107;28;20422;-70
2021/12/25 11:24:19;;;;;;;33.97;4.72;;;15.10;39.90;14.00;100748.00;;;;5045333;28;20094;-70
2021/12/25 11:27:06;;;;;;;39.10;5.47;;;15.10;39.60;14.00;100760.00;;;;5026378;28;20029;-70
2021/12/25 11:29:53;;;;;;;20.63;3.17;;;15.10;39.50;14.00;100750.00;;;;5025603;28;20044;-68
2021/12/25 11:32:42;;;;;;;16.75;2.95;;;15.00;39.40;14.10;100757.00;;;;5025404;28;20613;-68
2021/12/25 11:35:31;;;;;;;17.92;2.40;;;15.00;39.30;14.10;100751.00;;;;5040489;28;20124;-68
2021/12/25 11:38:18;;;;;;;10.68;1.90;;;15.00;39.30;14.10;100762.00;;;;5026227;28;20068;-68
2021/12/25 11:41:06;;;;;;;18.90;2.40;;;15.10;39.50;14.10;100749.00;;;;5042451;28;20119;-68
2021/12/25 11:43:54;;;;;;;22.60;3.78;;;15.10;39.70;14.10;100741.00;;;;5015993;28;20041;-68
2021/12/25 11:46:47;;;;;;;15.82;2.30;;;15.10;39.70;14.10;100749.00;;;;5022160;28;20052;-68
2021/12/25 11:49:53;;;;;;;14.93;2.05;;;15.10;39.70;14.10;100753.00;;;;5031108;28;20129;-68
2021/12/25 11:52:48;;;;;;;16.40;2.22;;;15.10;39.70;14.10;100752.00;;;;5017431;28;20029;-69
2021/12/25 11:58:49;;;;;;;382.25;32.13;;;15.10;40.10;14.10;100739.00;;;;5031333;28;20053;-68
2021/12/25 12:01:49;;;;;;;209.75;18.05;;;15.20;40.40;14.10;100732.00;;;;5043494;28;20390;-68
2021/12/25 12:04:36;;;;;;;164.80;14.90;;;15.10;40.20;14.20;100725.00;;;;5031559;28;20482;-68
2021/12/25 12:07:28;;;;;;;162.27;19.45;;;15.20;40.40;14.20;100732.00;;;;5023425;28;20040;-68
2021/12/25 12:10:14;;;;;;;114.07;14.05;;;15.20;40.50;14.20;100729.00;;;;5002107;28;20462;-68
2021/12/25 12:13:28;;;;;;;97.43;10.18;;;15.20;40.50;14.20;100724.00;;;;5045878;28;20037;-68
2021/12/25 12:16:14;;;;;;;77.75;8.82;;;15.20;40.30;14.20;100719.00;;;;5024630;28;20116;-68
2021/12/25 12:19:00;;;;;;;76.32;8.70;;;15.20;40.60;14.20;100732.00;;;;5032121;28;20037;-68
2021/12/25 12:21:46;;;;;;;71.78;7.30;;;15.20;40.40;14.20;100733.00;;;;5048116;28;20040;-68
2021/12/25 12:28:01;;;;;;;78.20;7.22;;;15.20;40.40;14.20;100722.00;;;;5036896;28;20084;-68
2021/12/25 12:30:51;;;;;;;141.55;12.73;;;15.30;40.20;14.20;100719.00;;;;5025902;28;20482;-68
2021/12/25 12:33:38;;;;;;;224.00;19.42;;;15.20;40.50;14.30;100718.00;;;;5028162;28;20040;-68
2021/12/25 12:36:25;;;;;;;236.10;20.05;;;15.20;40.70;14.30;100722.00;;;;5021070;28;20131;-68
2021/12/25 12:39:14;;;;;;;257.88;19.02;;;15.30;40.70;14.30;100728.00;;;;5043886;28;20080;-68
2021/12/25 12:42:02;;;;;;;258.77;21.48;;;15.30;40.80;14.30;100716.00;;;;5033276;28;20568;-68
2021/12/25 12:44:52;;;;;;;149.48;15.57;;;15.30;41.00;14.30;100700.00;;;;5046091;28;20045;-68
2021/12/25 12:47:39;;;;;;;167.02;15.48;;;15.30;40.70;14.30;100706.00;;;;5046992;28;20037;-68
2021/12/25 12:50:32;;;;;;;154.70;17.25;;;15.30;40.80;14.30;100711.00;;;;5017037;28;20083;-68
2021/12/25 12:53:20;;;;;;;139.32;12.73;;;15.30;40.70;14.30;100706.00;;;;5034650;28;20041;-69
2021/12/25 12:56:06;;;;;;;134.10;11.10;;;15.30;40.50;14.30;100708.00;;;;5034923;28;23192;-68
2021/12/25 12:58:54;;;;;;;42.50;4.85;;;15.30;39.60;14.30;100715.00;;;;5049268;28;20463;-68
2021/12/25 13:01:40;;;;;;;37.20;4.57;;;15.30;38.90;14.30;100714.00;;;;5030246;28;20060;-68
2021/12/25 13:04:26;;;;;;;19.10;2.55;;;15.30;38.50;14.30;100709.00;;;;5048255;28;20630;-69
2021/12/25 13:07:15;;;;;;;18.80;2.30;;;15.30;38.20;14.20;100717.00;;;;5034611;28;20036;-68
2021/12/25 13:10:24;;;;;;;12.23;1.98;;;15.30;37.70;14.20;100726.00;;;;5020603;28;20033;-69
2021/12/25 13:13:16;;;;;;;12.50;1.52;;;15.30;37.20;14.20;100733.00;;;;5049677;28;20470;-68
2021/12/25 13:16:09;;;;;;;12.93;1.52;;;15.30;37.30;14.20;100733.00;;;;5028671;28;20215;-68
2021/12/25 13:18:55;;;;;;;15.00;1.60;;;15.30;37.00;14.20;100724.00;;;;5045700;28;20045;-68
2021/12/25 13:21:42;;;;;;;8.85;1.00;;;15.30;37.20;14.10;100728.00;;;;5044089;28;20140;-68
2021/12/25 13:24:28;;;;;;;9.18;1.08;;;15.30;37.00;14.10;100724.00;;;;5048668;28;20102;-68
2021/12/25 13:27:18;;;;;;;16.65;1.48;;;15.20;36.70;14.10;100719.00;;;;5021843;28;20136;-68
2021/12/25 13:30:10;;;;;;;17.33;1.20;;;15.20;37.20;14.10;100727.00;;;;5047210;28;20045;-68
2021/12/25 13:33:15;;;;;;;42.17;3.72;;;15.20;36.60;14.10;100727.00;;;;5017564;28;20037;-68
2021/12/25 13:36:06;;;;;;;170.18;13.13;;;15.20;36.60;14.10;100730.00;;;;5047923;28;20365;-68